sensor_id;sensor_type;location;lat;lon;timestamp;temperature;humidity
73939;DHT22;62291;47.554;8.504;2024-02-14T00:02:21;3.40;99.90
73939;DHT22;62291;47.554;8.504;2024-02-14T00:04:47;3.40;99.90
73939;DHT22;62291;47.554;8.504;2024-02-14T00:07:13;3.40;99.90
73939;DHT22;62291;47.554;8.504;2024-02-14T00:09:40;3.50;99.90
73939;DHT22;62291;47.554;8.504;2024-02-14T00:12:06;3.50;99.90
73939;DHT22;62291;47.554;8.504;2024-02-14T00:14:31;3.50;99.90
73939;DHT22;62291;47.554;8.504;2024-02-14T00:16:57;3.50;99.90
73939;DHT22;62291;47.554;8.504;2024-02-14T00:19:24;3.50;99.90
73939;DHT22;62291;47.554;8.504;2024-02-14T00:21:50;3.50;99.90
73939;DHT22;62291;47.554;8.504;2024-02-14T00:24:16;3.50;99.90
73939;DHT22;62291;47.554;8.504;2024-02-14T00:26:45;3.50;99.90
73939;DHT22;62291;47.554;8.504;2024-02-14T00:29:11;3.50;99.90
73939;DHT22;62291;47.554;8.504;2024-02-14T00:31:37;3.50;99.90
73939;DHT22;62291;47.554;8.504;2024-02-14T00:34:03;3.60;99.90
73939;DHT22;62291;47.554;8.504;2024-02-14T00:36:30;3.60;99.90
73939;DHT22;62291;47.554;8.504;2024-02-14T00:38:56;3.60;99.90
73939;DHT22;62291;47.554;8.504;2024-02-14T00:41:21;3.60;99.90
73939;DHT22;62291;47.554;8.504;2024-02-14T00:43:47;3.60;99.90
73939;DHT22;62291;47.554;8.504;2024-02-14T00:46:16;3.60;99.90
73939;DHT22;62291;47.554;8.504;2024-02-14T00:48:42;3.70;99.90
73939;DHT22;62291;47.554;8.504;2024-02-14T00:51:10;3.80;99.90
73939;DHT22;62291;47.554;8.504;2024-02-14T00:53:35;3.80;99.90
73939;DHT22;62291;47.554;8.504;2024-02-14T00:56:01;3.90;99.90
73939;DHT22;62291;47.554;8.504;2024-02-14T00:58:28;4.00;99.90
73939;DHT22;62291;47.554;8.504;2024-02-14T01:00:53;4.10;99.90
73939;DHT22;62291;47.554;8.504;2024-02-14T01:03:19;4.10;99.90
73939;DHT22;62291;47.554;8.504;2024-02-14T01:05:45;4.10;99.90
73939;DHT22;62291;47.554;8.504;2024-02-14T01:08:10;4.10;99.90
73939;DHT22;62291;47.554;8.504;2024-02-14T01:10:36;4.10;99.90
73939;DHT22;62291;47.554;8.504;2024-02-14T01:13:02;4.10;99.90
73939;DHT22;62291;47.554;8.504;2024-02-14T01:15:28;4.10;99.90
73939;DHT22;62291;47.554;8.504;2024-02-14T01:17:53;4.10;99.90
73939;DHT22;62291;47.554;8.504;2024-02-14T01:20:19;4.10;99.90
73939;DHT22;62291;47.554;8.504;2024-02-14T01:22:45;4.10;99.90
73939;DHT22;62291;47.554;8.504;2024-02-14T01:25:12;4.10;99.90
73939;DHT22;62291;47.554;8.504;2024-02-14T01:27:38;4.10;99.90
73939;DHT22;62291;47.554;8.504;2024-02-14T01:30:05;4.20;99.90
73939;DHT22;62291;47.554;8.504;2024-02-14T01:32:31;4.30;99.90
73939;DHT22;62291;47.554;8.504;2024-02-14T01:34:57;4.40;99.90
73939;DHT22;62291;47.554;8.504;2024-02-14T01:37:22;4.50;99.90
73939;DHT22;62291;47.554;8.504;2024-02-14T01:39:48;4.60;99.90
73939;DHT22;62291;47.554;8.504;2024-02-14T01:42:14;4.60;99.90
73939;DHT22;62291;47.554;8.504;2024-02-14T01:44:40;4.60;99.90
73939;DHT22;62291;47.554;8.504;2024-02-14T01:47:05;4.60;99.90
73939;DHT22;62291;47.554;8.504;2024-02-14T01:49:33;4.60;99.90
73939;DHT22;62291;47.554;8.504;2024-02-14T01:52:02;4.60;99.90
73939;DHT22;62291;47.554;8.504;2024-02-14T01:54:31;4.60;99.90
73939;DHT22;62291;47.554;8.504;2024-02-14T01:56:58;4.60;99.90
73939;DHT22;62291;47.554;8.504;2024-02-14T01:59:24;4.60;99.90
73939;DHT22;62291;47.554;8.504;2024-02-14T02:01:50;4.60;99.90
73939;DHT22;62291;47.554;8.504;2024-02-14T02:04:17;4.60;99.90
73939;DHT22;62291;47.554;8.504;2024-02-14T02:06:44;4.70;99.90
73939;DHT22;62291;47.554;8.504;2024-02-14T02:09:09;4.70;99.90
73939;DHT22;62291;47.554;8.504;2024-02-14T02:11:51;4.70;99.90
73939;DHT22;62291;47.554;8.504;2024-02-14T02:14:21;4.80;99.90
73939;DHT22;62291;47.554;8.504;2024-02-14T02:16:48;4.90;99.90
73939;DHT22;62291;47.554;8.504;2024-02-14T02:19:14;4.90;99.90
73939;DHT22;62291;47.554;8.504;2024-02-14T02:21:42;4.90;99.90
73939;DHT22;62291;47.554;8.504;2024-02-14T02:24:11;4.80;99.90
73939;DHT22;62291;47.554;8.504;2024-02-14T02:26:37;4.80;99.90
73939;DHT22;62291;47.554;8.504;2024-02-14T02:29:03;4.80;99.90
73939;DHT22;62291;47.554;8.504;2024-02-14T02:31:30;4.90;99.90
73939;DHT22;62291;47.554;8.504;2024-02-14T02:33:56;4.80;99.90
73939;DHT22;62291;47.554;8.504;2024-02-14T02:36:23;4.70;99.90
73939;DHT22;62291;47.554;8.504;2024-02-14T02:38:50;4.60;99.90
73939;DHT22;62291;47.554;8.504;2024-02-14T02:41:15;4.50;99.90
73939;DHT22;62291;47.554;8.504;2024-02-14T02:43:41;4.50;99.90
73939;DHT22;62291;47.554;8.504;2024-02-14T02:46:09;4.50;99.90
73939;DHT22;62291;47.554;8.504;2024-02-14T02:48:35;4.40;99.90
73939;DHT22;62291;47.554;8.504;2024-02-14T02:51:01;4.40;99.90
73939;DHT22;62291;47.554;8.504;2024-02-14T02:53:27;4.30;99.90
73939;DHT22;62291;47.554;8.504;2024-02-14T02:55:53;4.20;99.90
73939;DHT22;62291;47.554;8.504;2024-02-14T02:58:20;4.10;99.90
73939;DHT22;62291;47.554;8.504;2024-02-14T03:00:46;4.00;99.90
73939;DHT22;62291;47.554;8.504;2024-02-14T03:03:14;3.80;99.90
73939;DHT22;62291;47.554;8.504;2024-02-14T03:05:41;3.70;99.90
73939;DHT22;62291;47.554;8.504;2024-02-14T03:08:12;3.50;99.90
73939;DHT22;62291;47.554;8.504;2024-02-14T03:10:41;3.30;99.90
73939;DHT22;62291;47.554;8.504;2024-02-14T03:13:07;3.30;99.90
73939;DHT22;62291;47.554;8.504;2024-02-14T03:15:37;3.20;99.90
73939;DHT22;62291;47.554;8.504;2024-02-14T03:18:03;3.20;99.90
73939;DHT22;62291;47.554;8.504;2024-02-14T03:20:33;3.20;99.90
73939;DHT22;62291;47.554;8.504;2024-02-14T03:22:59;3.30;99.90
73939;DHT22;62291;47.554;8.504;2024-02-14T03:25:24;3.40;99.90
73939;DHT22;62291;47.554;8.504;2024-02-14T03:27:51;3.40;99.90
73939;DHT22;62291;47.554;8.504;2024-02-14T03:30:19;3.50;99.90
73939;DHT22;62291;47.554;8.504;2024-02-14T03:32:51;3.60;99.90
73939;DHT22;62291;47.554;8.504;2024-02-14T03:35:21;3.80;99.90
73939;DHT22;62291;47.554;8.504;2024-02-14T03:37:48;3.90;99.90
73939;DHT22;62291;47.554;8.504;2024-02-14T03:40:14;4.00;99.90
73939;DHT22;62291;47.554;8.504;2024-02-14T03:42:40;4.10;99.90
73939;DHT22;62291;47.554;8.504;2024-02-14T03:45:07;4.10;99.90
73939;DHT22;62291;47.554;8.504;2024-02-14T03:47:32;4.10;99.90
73939;DHT22;62291;47.554;8.504;2024-02-14T03:49:59;4.20;99.90
73939;DHT22;62291;47.554;8.504;2024-02-14T03:52:25;4.20;99.90
73939;DHT22;62291;47.554;8.504;2024-02-14T03:54:50;4.40;99.90
73939;DHT22;62291;47.554;8.504;2024-02-14T03:57:16;4.50;99.90
73939;DHT22;62291;47.554;8.504;2024-02-14T03:59:44;4.70;99.90
73939;DHT22;62291;47.554;8.504;2024-02-14T04:02:10;4.80;99.90
73939;DHT22;62291;47.554;8.504;2024-02-14T04:04:39;5.00;99.90
73939;DHT22;62291;47.554;8.504;2024-02-14T04:07:07;5.00;99.90
73939;DHT22;62291;47.554;8.504;2024-02-14T04:09:34;5.10;99.90
73939;DHT22;62291;47.554;8.504;2024-02-14T04:12:00;5.20;99.90
73939;DHT22;62291;47.554;8.504;2024-02-14T04:14:25;5.30;99.90
73939;DHT22;62291;47.554;8.504;2024-02-14T04:16:51;5.30;99.90
73939;DHT22;62291;47.554;8.504;2024-02-14T04:19:17;5.40;99.90
73939;DHT22;62291;47.554;8.504;2024-02-14T04:21:43;5.30;99.90
73939;DHT22;62291;47.554;8.504;2024-02-14T04:24:09;5.30;99.90
73939;DHT22;62291;47.554;8.504;2024-02-14T04:26:35;5.30;99.90
73939;DHT22;62291;47.554;8.504;2024-02-14T04:29:01;5.30;99.90
73939;DHT22;62291;47.554;8.504;2024-02-14T04:31:27;5.20;99.90
73939;DHT22;62291;47.554;8.504;2024-02-14T04:33:55;5.20;99.90
73939;DHT22;62291;47.554;8.504;2024-02-14T04:36:21;5.10;99.90
73939;DHT22;62291;47.554;8.504;2024-02-14T04:38:49;5.10;99.90
73939;DHT22;62291;47.554;8.504;2024-02-14T04:41:15;5.10;99.90
73939;DHT22;62291;47.554;8.504;2024-02-14T04:43:41;5.10;99.90
73939;DHT22;62291;47.554;8.504;2024-02-14T04:46:07;5.20;99.90
73939;DHT22;62291;47.554;8.504;2024-02-14T04:48:34;5.30;99.90
73939;DHT22;62291;47.554;8.504;2024-02-14T04:51:00;5.40;99.90
73939;DHT22;62291;47.554;8.504;2024-02-14T04:53:25;5.50;99.90
73939;DHT22;62291;47.554;8.504;2024-02-14T04:55:51;5.60;99.90
73939;DHT22;62291;47.554;8.504;2024-02-14T04:58:17;5.70;99.90
73939;DHT22;62291;47.554;8.504;2024-02-14T05:00:42;5.80;99.90
73939;DHT22;62291;47.554;8.504;2024-02-14T05:03:08;5.90;99.90
73939;DHT22;62291;47.554;8.504;2024-02-14T05:05:35;5.70;99.90
73939;DHT22;62291;47.554;8.504;2024-02-14T05:08:01;5.50;99.90
73939;DHT22;62291;47.554;8.504;2024-02-14T05:10:28;5.60;99.90
73939;DHT22;62291;47.554;8.504;2024-02-14T05:12:54;5.60;99.90
73939;DHT22;62291;47.554;8.504;2024-02-14T05:15:20;5.60;99.90
73939;DHT22;62291;47.554;8.504;2024-02-14T05:17:46;5.60;99.90
73939;DHT22;62291;47.554;8.504;2024-02-14T05:20:12;5.60;99.90
73939;DHT22;62291;47.554;8.504;2024-02-14T05:22:38;5.60;99.90
73939;DHT22;62291;47.554;8.504;2024-02-14T05:25:05;5.60;99.90
73939;DHT22;62291;47.554;8.504;2024-02-14T05:27:33;5.60;99.90
73939;DHT22;62291;47.554;8.504;2024-02-14T05:29:58;5.50;99.90
73939;DHT22;62291;47.554;8.504;2024-02-14T05:32:24;5.60;99.90
73939;DHT22;62291;47.554;8.504;2024-02-14T05:34:51;5.60;99.90
73939;DHT22;62291;47.554;8.504;2024-02-14T05:37:16;5.70;99.90
73939;DHT22;62291;47.554;8.504;2024-02-14T05:39:42;5.80;99.90
73939;DHT22;62291;47.554;8.504;2024-02-14T05:42:08;5.80;99.90
73939;DHT22;62291;47.554;8.504;2024-02-14T05:44:34;5.70;99.90
73939;DHT22;62291;47.554;8.504;2024-02-14T05:46:59;5.60;99.90
73939;DHT22;62291;47.554;8.504;2024-02-14T05:49:26;5.50;99.90
73939;DHT22;62291;47.554;8.504;2024-02-14T05:51:51;5.40;99.90
73939;DHT22;62291;47.554;8.504;2024-02-14T05:54:19;5.30;99.90
73939;DHT22;62291;47.554;8.504;2024-02-14T05:56:45;5.30;99.90
73939;DHT22;62291;47.554;8.504;2024-02-14T05:59:11;5.30;99.90
73939;DHT22;62291;47.554;8.504;2024-02-14T06:01:37;5.30;99.90
73939;DHT22;62291;47.554;8.504;2024-02-14T06:04:03;5.30;99.90
73939;DHT22;62291;47.554;8.504;2024-02-14T06:06:29;5.30;99.90
73939;DHT22;62291;47.554;8.504;2024-02-14T06:08:54;5.30;99.90
73939;DHT22;62291;47.554;8.504;2024-02-14T06:11:21;5.30;99.90
73939;DHT22;62291;47.554;8.504;2024-02-14T06:13:49;5.20;99.90
73939;DHT22;62291;47.554;8.504;2024-02-14T06:16:15;5.20;99.90
73939;DHT22;62291;47.554;8.504;2024-02-14T06:18:41;5.20;99.90
73939;DHT22;62291;47.554;8.504;2024-02-14T06:21:07;5.20;99.90
73939;DHT22;62291;47.554;8.504;2024-02-14T06:23:33;5.30;99.90
73939;DHT22;62291;47.554;8.504;2024-02-14T06:25:59;5.30;99.90
73939;DHT22;62291;47.554;8.504;2024-02-14T06:28:25;5.30;99.90
73939;DHT22;62291;47.554;8.504;2024-02-14T06:30:50;5.40;99.90
73939;DHT22;62291;47.554;8.504;2024-02-14T06:33:16;5.40;99.90
73939;DHT22;62291;47.554;8.504;2024-02-14T06:35:42;5.50;99.90
73939;DHT22;62291;47.554;8.504;2024-02-14T06:38:07;5.50;99.90
73939;DHT22;62291;47.554;8.504;2024-02-14T06:40:33;5.50;99.90
73939;DHT22;62291;47.554;8.504;2024-02-14T06:42:59;5.50;99.90
73939;DHT22;62291;47.554;8.504;2024-02-14T06:45:28;5.60;99.90
73939;DHT22;62291;47.554;8.504;2024-02-14T06:47:54;5.60;99.90
73939;DHT22;62291;47.554;8.504;2024-02-14T06:50:20;5.80;99.90
73939;DHT22;62291;47.554;8.504;2024-02-14T06:52:46;6.00;99.90
73939;DHT22;62291;47.554;8.504;2024-02-14T06:55:11;6.10;99.90
73939;DHT22;62291;47.554;8.504;2024-02-14T06:57:38;6.30;99.90
73939;DHT22;62291;47.554;8.504;2024-02-14T07:00:04;6.30;99.90
73939;DHT22;62291;47.554;8.504;2024-02-14T07:02:34;6.40;99.90
73939;DHT22;62291;47.554;8.504;2024-02-14T07:04:59;6.40;99.90
73939;DHT22;62291;47.554;8.504;2024-02-14T07:07:25;6.50;99.90
73939;DHT22;62291;47.554;8.504;2024-02-14T07:09:51;6.60;99.90
73939;DHT22;62291;47.554;8.504;2024-02-14T07:12:17;6.70;99.90
73939;DHT22;62291;47.554;8.504;2024-02-14T07:14:42;6.80;99.90
73939;DHT22;62291;47.554;8.504;2024-02-14T07:17:08;7.10;99.90
73939;DHT22;62291;47.554;8.504;2024-02-14T07:19:33;7.30;99.90
73939;DHT22;62291;47.554;8.504;2024-02-14T07:21:59;7.40;99.90
73939;DHT22;62291;47.554;8.504;2024-02-14T07:24:25;7.50;99.90
73939;DHT22;62291;47.554;8.504;2024-02-14T07:26:50;7.60;99.90
73939;DHT22;62291;47.554;8.504;2024-02-14T07:29:16;7.70;99.90
73939;DHT22;62291;47.554;8.504;2024-02-14T07:31:41;7.80;99.90
73939;DHT22;62291;47.554;8.504;2024-02-14T07:34:07;7.90;99.90
73939;DHT22;62291;47.554;8.504;2024-02-14T07:36:33;8.00;99.90
73939;DHT22;62291;47.554;8.504;2024-02-14T07:38:59;8.60;99.90
73939;DHT22;62291;47.554;8.504;2024-02-14T07:41:24;9.50;99.90
73939;DHT22;62291;47.554;8.504;2024-02-14T07:43:50;10.20;99.90
73939;DHT22;62291;47.554;8.504;2024-02-14T07:46:20;10.40;99.90
73939;DHT22;62291;47.554;8.504;2024-02-14T07:48:46;10.20;99.90
73939;DHT22;62291;47.554;8.504;2024-02-14T07:51:12;10.00;99.90
73939;DHT22;62291;47.554;8.504;2024-02-14T07:53:38;9.70;99.90
73939;DHT22;62291;47.554;8.504;2024-02-14T07:56:04;9.40;99.90
73939;DHT22;62291;47.554;8.504;2024-02-14T07:58:29;9.20;99.90
73939;DHT22;62291;47.554;8.504;2024-02-14T08:00:55;9.10;99.90
73939;DHT22;62291;47.554;8.504;2024-02-14T08:03:21;9.20;99.90
73939;DHT22;62291;47.554;8.504;2024-02-14T08:05:46;9.20;99.90
73939;DHT22;62291;47.554;8.504;2024-02-14T08:08:12;9.00;99.90
73939;DHT22;62291;47.554;8.504;2024-02-14T08:10:38;8.80;99.90
73939;DHT22;62291;47.554;8.504;2024-02-14T08:13:04;9.00;99.90
73939;DHT22;62291;47.554;8.504;2024-02-14T08:15:30;8.90;99.90
73939;DHT22;62291;47.554;8.504;2024-02-14T08:17:56;9.00;99.90
73939;DHT22;62291;47.554;8.504;2024-02-14T08:20:22;9.10;99.90
73939;DHT22;62291;47.554;8.504;2024-02-14T08:22:49;8.90;99.90
73939;DHT22;62291;47.554;8.504;2024-02-14T08:25:15;9.00;99.90
73939;DHT22;62291;47.554;8.504;2024-02-14T08:27:41;9.30;99.90
73939;DHT22;62291;47.554;8.504;2024-02-14T08:30:07;9.30;99.90
73939;DHT22;62291;47.554;8.504;2024-02-14T08:32:34;9.20;99.90
73939;DHT22;62291;47.554;8.504;2024-02-14T08:35:00;9.30;99.90
73939;DHT22;62291;47.554;8.504;2024-02-14T08:37:26;9.30;99.90
73939;DHT22;62291;47.554;8.504;2024-02-14T08:39:52;9.40;99.90
73939;DHT22;62291;47.554;8.504;2024-02-14T08:42:18;9.30;99.90
73939;DHT22;62291;47.554;8.504;2024-02-14T08:44:44;9.10;99.90
73939;DHT22;62291;47.554;8.504;2024-02-14T08:47:10;9.00;99.90
73939;DHT22;62291;47.554;8.504;2024-02-14T08:49:36;9.20;99.90
73939;DHT22;62291;47.554;8.504;2024-02-14T08:52:03;9.30;99.90
73939;DHT22;62291;47.554;8.504;2024-02-14T08:54:29;9.40;99.90
73939;DHT22;62291;47.554;8.504;2024-02-14T08:56:54;9.60;99.90
73939;DHT22;62291;47.554;8.504;2024-02-14T08:59:23;9.80;99.90
73939;DHT22;62291;47.554;8.504;2024-02-14T09:01:49;10.10;99.90
73939;DHT22;62291;47.554;8.504;2024-02-14T09:04:15;10.30;99.90
73939;DHT22;62291;47.554;8.504;2024-02-14T09:06:40;10.60;99.90
73939;DHT22;62291;47.554;8.504;2024-02-14T09:09:07;10.90;99.90
73939;DHT22;62291;47.554;8.504;2024-02-14T09:11:35;10.90;99.90
73939;DHT22;62291;47.554;8.504;2024-02-14T09:14:01;11.10;99.90
73939;DHT22;62291;47.554;8.504;2024-02-14T09:16:34;11.10;99.90
73939;DHT22;62291;47.554;8.504;2024-02-14T09:19:00;11.10;99.90
73939;DHT22;62291;47.554;8.504;2024-02-14T09:21:32;10.90;99.90
73939;DHT22;62291;47.554;8.504;2024-02-14T09:23:59;10.90;99.90
73939;DHT22;62291;47.554;8.504;2024-02-14T09:26:26;11.00;99.90
73939;DHT22;62291;47.554;8.504;2024-02-14T09:28:52;11.10;99.90
73939;DHT22;62291;47.554;8.504;2024-02-14T09:31:18;11.10;99.90
73939;DHT22;62291;47.554;8.504;2024-02-14T09:33:48;11.00;99.90
73939;DHT22;62291;47.554;8.504;2024-02-14T09:36:14;11.10;99.90
73939;DHT22;62291;47.554;8.504;2024-02-14T09:38:41;11.10;99.90
73939;DHT22;62291;47.554;8.504;2024-02-14T09:41:26;11.30;99.90
73939;DHT22;62291;47.554;8.504;2024-02-14T09:43:54;11.40;99.90
73939;DHT22;62291;47.554;8.504;2024-02-14T09:46:23;11.80;99.90
73939;DHT22;62291;47.554;8.504;2024-02-14T09:48:50;12.20;99.90
73939;DHT22;62291;47.554;8.504;2024-02-14T09:51:17;12.60;99.90
73939;DHT22;62291;47.554;8.504;2024-02-14T09:53:43;12.80;99.90
73939;DHT22;62291;47.554;8.504;2024-02-14T09:56:10;13.10;99.90
73939;DHT22;62291;47.554;8.504;2024-02-14T09:58:37;13.20;99.90
73939;DHT22;62291;47.554;8.504;2024-02-14T10:01:04;13.30;99.90
73939;DHT22;62291;47.554;8.504;2024-02-14T10:03:30;13.40;99.90
73939;DHT22;62291;47.554;8.504;2024-02-14T10:05:56;13.40;99.90
73939;DHT22;62291;47.554;8.504;2024-02-14T10:08:22;13.40;99.90
73939;DHT22;62291;47.554;8.504;2024-02-14T10:10:49;13.70;99.90
73939;DHT22;62291;47.554;8.504;2024-02-14T10:13:15;13.80;99.90
73939;DHT22;62291;47.554;8.504;2024-02-14T10:15:41;14.00;99.90
73939;DHT22;62291;47.554;8.504;2024-02-14T10:18:07;14.10;99.90
73939;DHT22;62291;47.554;8.504;2024-02-14T10:20:35;14.30;99.90
73939;DHT22;62291;47.554;8.504;2024-02-14T10:23:07;14.60;99.90
73939;DHT22;62291;47.554;8.504;2024-02-14T10:25:34;14.90;99.90
73939;DHT22;62291;47.554;8.504;2024-02-14T10:28:06;15.00;99.90
73939;DHT22;62291;47.554;8.504;2024-02-14T10:30:37;15.10;99.90
73939;DHT22;62291;47.554;8.504;2024-02-14T10:33:06;14.80;99.90
73939;DHT22;62291;47.554;8.504;2024-02-14T10:35:34;14.80;99.90
73939;DHT22;62291;47.554;8.504;2024-02-14T10:38:02;14.50;99.90
73939;DHT22;62291;47.554;8.504;2024-02-14T10:40:29;14.40;99.90
73939;DHT22;62291;47.554;8.504;2024-02-14T10:42:56;14.40;99.90
73939;DHT22;62291;47.554;8.504;2024-02-14T10:45:24;14.40;99.90
73939;DHT22;62291;47.554;8.504;2024-02-14T10:47:51;14.60;99.90
73939;DHT22;62291;47.554;8.504;2024-02-14T10:50:21;14.60;99.90
73939;DHT22;62291;47.554;8.504;2024-02-14T10:52:48;14.60;99.90
73939;DHT22;62291;47.554;8.504;2024-02-14T10:55:16;14.50;99.90
73939;DHT22;62291;47.554;8.504;2024-02-14T10:57:46;14.30;99.90
73939;DHT22;62291;47.554;8.504;2024-02-14T11:00:14;14.40;99.90
73939;DHT22;62291;47.554;8.504;2024-02-14T11:02:41;14.50;99.90
73939;DHT22;62291;47.554;8.504;2024-02-14T11:05:14;14.80;99.90
73939;DHT22;62291;47.554;8.504;2024-02-14T11:07:46;14.80;99.90
73939;DHT22;62291;47.554;8.504;2024-02-14T11:10:16;14.80;99.90
73939;DHT22;62291;47.554;8.504;2024-02-14T11:12:42;14.60;99.90
73939;DHT22;62291;47.554;8.504;2024-02-14T11:15:21;14.60;99.90
73939;DHT22;62291;47.554;8.504;2024-02-14T11:17:48;14.50;99.90
73939;DHT22;62291;47.554;8.504;2024-02-14T11:20:21;14.70;99.90
73939;DHT22;62291;47.554;8.504;2024-02-14T11:23:03;14.90;99.90
73939;DHT22;62291;47.554;8.504;2024-02-14T11:25:31;15.00;99.90
73939;DHT22;62291;47.554;8.504;2024-02-14T11:27:58;15.10;99.90
73939;DHT22;62291;47.554;8.504;2024-02-14T11:30:29;15.30;99.90
73939;DHT22;62291;47.554;8.504;2024-02-14T11:33:13;15.30;99.90
73939;DHT22;62291;47.554;8.504;2024-02-14T11:35:42;15.40;99.90
73939;DHT22;62291;47.554;8.504;2024-02-14T11:38:09;15.50;99.90
73939;DHT22;62291;47.554;8.504;2024-02-14T11:40:35;15.50;99.90
73939;DHT22;62291;47.554;8.504;2024-02-14T11:43:01;15.40;99.90
73939;DHT22;62291;47.554;8.504;2024-02-14T11:45:27;15.20;99.90
73939;DHT22;62291;47.554;8.504;2024-02-14T11:47:54;15.20;99.90
73939;DHT22;62291;47.554;8.504;2024-02-14T11:50:20;15.20;99.90
73939;DHT22;62291;47.554;8.504;2024-02-14T11:52:46;15.10;99.90
73939;DHT22;62291;47.554;8.504;2024-02-14T11:55:12;15.20;99.90
73939;DHT22;62291;47.554;8.504;2024-02-14T11:57:41;15.40;99.90
73939;DHT22;62291;47.554;8.504;2024-02-14T12:00:08;15.50;99.90
73939;DHT22;62291;47.554;8.504;2024-02-14T12:02:34;15.50;99.90
73939;DHT22;62291;47.554;8.504;2024-02-14T12:05:01;15.60;99.90
73939;DHT22;62291;47.554;8.504;2024-02-14T12:07:30;15.70;99.90
73939;DHT22;62291;47.554;8.504;2024-02-14T12:09:56;15.60;99.90
73939;DHT22;62291;47.554;8.504;2024-02-14T12:12:22;15.30;99.90
73939;DHT22;62291;47.554;8.504;2024-02-14T12:14:54;15.20;99.90
73939;DHT22;62291;47.554;8.504;2024-02-14T12:17:20;15.20;99.90
73939;DHT22;62291;47.554;8.504;2024-02-14T12:19:47;15.30;99.90
73939;DHT22;62291;47.554;8.504;2024-02-14T12:22:16;15.20;99.90
73939;DHT22;62291;47.554;8.504;2024-02-14T12:24:45;15.30;99.90
73939;DHT22;62291;47.554;8.504;2024-02-14T12:27:11;15.40;99.90
73939;DHT22;62291;47.554;8.504;2024-02-14T12:29:37;15.30;99.90
73939;DHT22;62291;47.554;8.504;2024-02-14T12:32:04;15.20;99.90
73939;DHT22;62291;47.554;8.504;2024-02-14T12:34:32;15.20;99.90
73939;DHT22;62291;47.554;8.504;2024-02-14T12:36:58;15.20;99.90
73939;DHT22;62291;47.554;8.504;2024-02-14T12:39:24;15.40;99.90
73939;DHT22;62291;47.554;8.504;2024-02-14T12:41:51;15.50;99.90
73939;DHT22;62291;47.554;8.504;2024-02-14T12:44:17;15.40;99.90
73939;DHT22;62291;47.554;8.504;2024-02-14T12:46:43;15.50;99.90
73939;DHT22;62291;47.554;8.504;2024-02-14T12:49:09;15.50;99.90
73939;DHT22;62291;47.554;8.504;2024-02-14T12:51:36;15.50;99.90
73939;DHT22;62291;47.554;8.504;2024-02-14T12:54:04;15.50;99.90
73939;DHT22;62291;47.554;8.504;2024-02-14T12:56:31;15.50;99.90
73939;DHT22;62291;47.554;8.504;2024-02-14T12:58:57;15.60;99.90
73939;DHT22;62291;47.554;8.504;2024-02-14T13:01:24;15.70;99.90
73939;DHT22;62291;47.554;8.504;2024-02-14T13:03:50;15.70;99.90
73939;DHT22;62291;47.554;8.504;2024-02-14T13:06:16;15.60;99.90
73939;DHT22;62291;47.554;8.504;2024-02-14T13:08:42;15.80;99.90
73939;DHT22;62291;47.554;8.504;2024-02-14T13:11:07;15.80;99.90
73939;DHT22;62291;47.554;8.504;2024-02-14T13:13:36;16.00;99.90
73939;DHT22;62291;47.554;8.504;2024-02-14T13:16:02;15.90;99.90
73939;DHT22;62291;47.554;8.504;2024-02-14T13:18:28;16.00;99.90
73939;DHT22;62291;47.554;8.504;2024-02-14T13:20:53;16.20;99.90
73939;DHT22;62291;47.554;8.504;2024-02-14T13:23:25;16.30;99.90
73939;DHT22;62291;47.554;8.504;2024-02-14T13:25:51;16.40;99.90
73939;DHT22;62291;47.554;8.504;2024-02-14T13:28:17;16.10;99.90
73939;DHT22;62291;47.554;8.504;2024-02-14T13:30:43;16.00;99.90
73939;DHT22;62291;47.554;8.504;2024-02-14T13:33:09;16.00;99.90
73939;DHT22;62291;47.554;8.504;2024-02-14T13:35:37;15.90;99.90
73939;DHT22;62291;47.554;8.504;2024-02-14T13:38:07;15.90;99.90
73939;DHT22;62291;47.554;8.504;2024-02-14T13:40:35;15.70;99.90
73939;DHT22;62291;47.554;8.504;2024-02-14T13:43:00;15.60;99.90
73939;DHT22;62291;47.554;8.504;2024-02-14T13:45:27;15.60;99.90
73939;DHT22;62291;47.554;8.504;2024-02-14T13:48:03;15.60;99.90
73939;DHT22;62291;47.554;8.504;2024-02-14T13:50:33;15.80;99.90
73939;DHT22;62291;47.554;8.504;2024-02-14T13:52:58;15.90;99.90
73939;DHT22;62291;47.554;8.504;2024-02-14T13:55:24;16.00;99.90
73939;DHT22;62291;47.554;8.504;2024-02-14T13:57:50;16.10;99.90
73939;DHT22;62291;47.554;8.504;2024-02-14T14:00:16;16.00;99.90
73939;DHT22;62291;47.554;8.504;2024-02-14T14:02:42;16.00;99.90
73939;DHT22;62291;47.554;8.504;2024-02-14T14:05:12;16.10;99.90
73939;DHT22;62291;47.554;8.504;2024-02-14T14:07:39;16.10;99.90
73939;DHT22;62291;47.554;8.504;2024-02-14T14:10:13;15.90;99.90
73939;DHT22;62291;47.554;8.504;2024-02-14T14:12:39;15.70;99.90
73939;DHT22;62291;47.554;8.504;2024-02-14T14:15:05;15.60;99.90
73939;DHT22;62291;47.554;8.504;2024-02-14T14:17:31;15.60;99.90
73939;DHT22;62291;47.554;8.504;2024-02-14T14:19:57;15.60;99.90
73939;DHT22;62291;47.554;8.504;2024-02-14T14:22:23;15.30;99.90
73939;DHT22;62291;47.554;8.504;2024-02-14T14:24:49;15.10;99.90
73939;DHT22;62291;47.554;8.504;2024-02-14T14:27:15;14.80;99.90
73939;DHT22;62291;47.554;8.504;2024-02-14T14:29:41;14.50;99.90
73939;DHT22;62291;47.554;8.504;2024-02-14T14:32:07;14.40;99.90
73939;DHT22;62291;47.554;8.504;2024-02-14T14:34:33;14.30;99.90
73939;DHT22;62291;47.554;8.504;2024-02-14T14:36:59;14.30;99.90
73939;DHT22;62291;47.554;8.504;2024-02-14T14:39:25;14.20;99.90
73939;DHT22;62291;47.554;8.504;2024-02-14T14:41:51;14.20;99.90
73939;DHT22;62291;47.554;8.504;2024-02-14T14:44:18;14.10;99.90
73939;DHT22;62291;47.554;8.504;2024-02-14T14:46:44;14.00;99.90
73939;DHT22;62291;47.554;8.504;2024-02-14T14:49:10;13.90;99.90
73939;DHT22;62291;47.554;8.504;2024-02-14T14:51:37;13.80;99.90
73939;DHT22;62291;47.554;8.504;2024-02-14T14:54:06;13.70;99.90
73939;DHT22;62291;47.554;8.504;2024-02-14T14:56:31;13.70;99.90
73939;DHT22;62291;47.554;8.504;2024-02-14T14:58:57;13.60;99.90
73939;DHT22;62291;47.554;8.504;2024-02-14T15:01:25;13.60;99.90
73939;DHT22;62291;47.554;8.504;2024-02-14T15:03:53;13.60;99.90
73939;DHT22;62291;47.554;8.504;2024-02-14T15:06:19;13.50;99.90
73939;DHT22;62291;47.554;8.504;2024-02-14T15:08:45;13.50;99.90
73939;DHT22;62291;47.554;8.504;2024-02-14T15:11:13;13.50;99.90
73939;DHT22;62291;47.554;8.504;2024-02-14T15:13:43;13.50;99.90
73939;DHT22;62291;47.554;8.504;2024-02-14T15:16:10;13.50;99.90
73939;DHT22;62291;47.554;8.504;2024-02-14T15:18:36;13.40;99.90
73939;DHT22;62291;47.554;8.504;2024-02-14T15:21:02;13.40;99.90
73939;DHT22;62291;47.554;8.504;2024-02-14T15:23:28;13.40;99.90
73939;DHT22;62291;47.554;8.504;2024-02-14T15:25:54;13.40;99.90
73939;DHT22;62291;47.554;8.504;2024-02-14T15:28:31;13.30;99.90
73939;DHT22;62291;47.554;8.504;2024-02-14T15:30:57;13.30;99.90
73939;DHT22;62291;47.554;8.504;2024-02-14T15:33:41;13.20;99.90
73939;DHT22;62291;47.554;8.504;2024-02-14T15:36:07;13.20;99.90
73939;DHT22;62291;47.554;8.504;2024-02-14T15:38:33;13.10;99.90